sensor_id;sensor_type;location;lat;lon;timestamp;P1;durP1;ratioP1;P2;durP2;ratioP2
47489;SDS011;33226;56.996;14.584;2022-09-25T00:00:22;4.30;;;2.60;;
47489;SDS011;33226;56.996;14.584;2022-09-25T00:02:48;3.30;;;2.30;;
47489;SDS011;33226;56.996;14.584;2022-09-25T00:05:14;2.95;;;2.50;;
47489;SDS011;33226;56.996;14.584;2022-09-25T00:07:39;2.08;;;1.88;;
47489;SDS011;33226;56.996;14.584;2022-09-25T00:10:06;2.58;;;2.38;;
47489;SDS011;33226;56.996;14.584;2022-09-25T00:12:32;2.40;;;2.10;;
47489;SDS011;33226;56.996;14.584;2022-09-25T00:14:58;2.90;;;2.42;;
47489;SDS011;33226;56.996;14.584;2022-09-25T00:17:23;3.10;;;2.63;;
47489;SDS011;33226;56.996;14.584;2022-09-25T00:19:50;2.65;;;2.30;;
47489;SDS011;33226;56.996;14.584;2022-09-25T00:22:18;2.85;;;2.55;;
47489;SDS011;33226;56.996;14.584;2022-09-25T00:24:46;3.63;;;2.53;;
47489;SDS011;33226;56.996;14.584;2022-09-25T00:27:12;3.20;;;2.70;;
47489;SDS011;33226;56.996;14.584;2022-09-25T00:29:38;2.83;;;2.28;;
47489;SDS011;33226;56.996;14.584;2022-09-25T00:32:05;2.30;;;2.10;;
47489;SDS011;33226;56.996;14.584;2022-09-25T00:34:32;3.65;;;2.90;;
47489;SDS011;33226;56.996;14.584;2022-09-25T00:36:58;3.10;;;2.38;;
47489;SDS011;33226;56.996;14.584;2022-09-25T00:39:23;2.80;;;2.42;;
47489;SDS011;33226;56.996;14.584;2022-09-25T00:41:50;2.83;;;2.00;;
47489;SDS011;33226;56.996;14.584;2022-09-25T00:47:14;3.40;;;2.10;;
47489;SDS011;33226;56.996;14.584;2022-09-25T00:49:43;3.53;;;2.60;;
47489;SDS011;33226;56.996;14.584;2022-09-25T00:52:09;2.50;;;2.30;;
47489;SDS011;33226;56.996;14.584;2022-09-25T00:54:50;2.40;;;2.30;;
47489;SDS011;33226;56.996;14.584;2022-09-25T00:57:20;6.78;;;2.70;;
47489;SDS011;33226;56.996;14.584;2022-09-25T00:59:51;2.28;;;2.03;;
47489;SDS011;33226;56.996;14.584;2022-09-25T01:02:24;2.75;;;2.42;;
47489;SDS011;33226;56.996;14.584;2022-09-25T01:04:53;2.65;;;2.03;;
47489;SDS011;33226;56.996;14.584;2022-09-25T01:07:21;3.70;;;2.30;;
47489;SDS011;33226;56.996;14.584;2022-09-25T01:09:48;2.85;;;2.60;;
47489;SDS011;33226;56.996;14.584;2022-09-25T01:12:14;3.08;;;2.60;;
47489;SDS011;33226;56.996;14.584;2022-09-25T01:14:39;5.88;;;2.63;;
47489;SDS011;33226;56.996;14.584;2022-09-25T01:17:06;3.58;;;2.55;;
47489;SDS011;33226;56.996;14.584;2022-09-25T01:25:22;2.58;;;2.38;;
47489;SDS011;33226;56.996;14.584;2022-09-25T01:28:09;4.05;;;2.83;;
47489;SDS011;33226;56.996;14.584;2022-09-25T01:30:56;3.95;;;2.67;;
47489;SDS011;33226;56.996;14.584;2022-09-25T01:33:27;2.60;;;2.40;;
47489;SDS011;33226;56.996;14.584;2022-09-25T01:36:05;3.15;;;2.80;;
47489;SDS011;33226;56.996;14.584;2022-09-25T01:38:44;8.02;;;2.60;;
47489;SDS011;33226;56.996;14.584;2022-09-25T01:41:20;3.28;;;2.80;;
47489;SDS011;33226;56.996;14.584;2022-09-25T01:43:59;2.60;;;2.40;;
47489;SDS011;33226;56.996;14.584;2022-09-25T01:46:34;2.10;;;2.00;;
47489;SDS011;33226;56.996;14.584;2022-09-25T01:49:09;6.37;;;2.67;;
47489;SDS011;33226;56.996;14.584;2022-09-25T01:51:42;5.70;;;2.55;;
47489;SDS011;33226;56.996;14.584;2022-09-25T01:54:14;5.68;;;2.75;;
47489;SDS011;33226;56.996;14.584;2022-09-25T01:57:01;2.55;;;2.10;;
47489;SDS011;33226;56.996;14.584;2022-09-25T01:59:39;3.08;;;2.20;;
47489;SDS011;33226;56.996;14.584;2022-09-25T02:02:14;5.53;;;2.53;;
47489;SDS011;33226;56.996;14.584;2022-09-25T02:07:30;2.45;;;2.15;;
47489;SDS011;33226;56.996;14.584;2022-09-25T02:10:03;2.50;;;2.30;;
47489;SDS011;33226;56.996;14.584;2022-09-25T02:12:56;2.42;;;2.22;;
47489;SDS011;33226;56.996;14.584;2022-09-25T02:15:28;2.33;;;2.17;;
47489;SDS011;33226;56.996;14.584;2022-09-25T02:17:58;4.68;;;2.75;;
47489;SDS011;33226;56.996;14.584;2022-09-25T02:20:45;2.67;;;2.42;;
47489;SDS011;33226;56.996;14.584;2022-09-25T02:23:28;3.28;;;2.20;;
47489;SDS011;33226;56.996;14.584;2022-09-25T02:26:19;2.55;;;2.20;;
47489;SDS011;33226;56.996;14.584;2022-09-25T02:28:51;2.05;;;1.95;;
47489;SDS011;33226;56.996;14.584;2022-09-25T02:31:18;2.05;;;1.95;;
47489;SDS011;33226;56.996;14.584;2022-09-25T02:33:45;4.75;;;2.00;;
47489;SDS011;33226;56.996;14.584;2022-09-25T02:36:18;3.70;;;2.00;;
47489;SDS011;33226;56.996;14.584;2022-09-25T02:38:45;2.45;;;2.25;;
47489;SDS011;33226;56.996;14.584;2022-09-25T02:44:18;2.65;;;2.45;;
47489;SDS011;33226;56.996;14.584;2022-09-25T02:52:32;3.10;;;2.22;;
47489;SDS011;33226;56.996;14.584;2022-09-25T02:58:20;7.27;;;2.50;;
47489;SDS011;33226;56.996;14.584;2022-09-25T03:00:56;2.92;;;2.63;;
47489;SDS011;33226;56.996;14.584;2022-09-25T03:03:24;4.55;;;2.40;;
47489;SDS011;33226;56.996;14.584;2022-09-25T03:05:53;4.43;;;2.40;;
47489;SDS011;33226;56.996;14.584;2022-09-25T03:08:20;2.47;;;2.28;;
47489;SDS011;33226;56.996;14.584;2022-09-25T03:11:10;2.47;;;2.28;;
47489;SDS011;33226;56.996;14.584;2022-09-25T03:13:38;2.95;;;2.38;;
47489;SDS011;33226;56.996;14.584;2022-09-25T03:18:38;4.32;;;2.65;;
47489;SDS011;33226;56.996;14.584;2022-09-25T03:21:04;2.40;;;2.20;;
47489;SDS011;33226;56.996;14.584;2022-09-25T03:23:30;3.67;;;2.80;;
47489;SDS011;33226;56.996;14.584;2022-09-25T03:25:58;3.17;;;2.78;;
47489;SDS011;33226;56.996;14.584;2022-09-25T03:28:24;3.63;;;2.45;;
47489;SDS011;33226;56.996;14.584;2022-09-25T03:36:04;3.10;;;2.90;;
47489;SDS011;33226;56.996;14.584;2022-09-25T03:38:33;3.10;;;2.80;;
47489;SDS011;33226;56.996;14.584;2022-09-25T03:40:59;2.78;;;2.58;;
47489;SDS011;33226;56.996;14.584;2022-09-25T03:43:25;4.28;;;2.78;;
47489;SDS011;33226;56.996;14.584;2022-09-25T03:45:51;2.80;;;2.60;;
47489;SDS011;33226;56.996;14.584;2022-09-25T03:48:17;3.42;;;2.50;;
47489;SDS011;33226;56.996;14.584;2022-09-25T03:50:43;2.55;;;2.35;;
47489;SDS011;33226;56.996;14.584;2022-09-25T03:53:10;2.72;;;2.50;;
47489;SDS011;33226;56.996;14.584;2022-09-25T03:55:36;2.65;;;2.28;;
47489;SDS011;33226;56.996;14.584;2022-09-25T03:58:01;3.75;;;2.50;;
47489;SDS011;33226;56.996;14.584;2022-09-25T04:00:27;2.45;;;2.25;;
47489;SDS011;33226;56.996;14.584;2022-09-25T04:02:52;2.60;;;2.25;;
47489;SDS011;33226;56.996;14.584;2022-09-25T04:05:18;2.38;;;2.13;;
47489;SDS011;33226;56.996;14.584;2022-09-25T04:07:44;4.18;;;2.63;;
47489;SDS011;33226;56.996;14.584;2022-09-25T04:10:09;2.50;;;2.30;;
47489;SDS011;33226;56.996;14.584;2022-09-25T04:12:35;3.05;;;2.28;;
47489;SDS011;33226;56.996;14.584;2022-09-25T04:15:01;3.85;;;2.47;;
47489;SDS011;33226;56.996;14.584;2022-09-25T04:17:26;4.35;;;2.50;;
47489;SDS011;33226;56.996;14.584;2022-09-25T04:19:53;5.00;;;2.50;;
47489;SDS011;33226;56.996;14.584;2022-09-25T04:22:19;3.20;;;2.47;;
47489;SDS011;33226;56.996;14.584;2022-09-25T04:24:44;2.75;;;2.55;;
47489;SDS011;33226;56.996;14.584;2022-09-25T04:27:22;2.92;;;2.50;;
47489;SDS011;33226;56.996;14.584;2022-09-25T04:29:48;2.83;;;2.60;;
47489;SDS011;33226;56.996;14.584;2022-09-25T04:32:14;3.53;;;2.50;;
47489;SDS011;33226;56.996;14.584;2022-09-25T04:37:25;2.78;;;2.42;;
47489;SDS011;33226;56.996;14.584;2022-09-25T04:39:52;3.00;;;2.70;;
47489;SDS011;33226;56.996;14.584;2022-09-25T04:42:18;3.03;;;2.72;;
47489;SDS011;33226;56.996;14.584;2022-09-25T04:44:49;2.53;;;2.33;;
47489;SDS011;33226;56.996;14.584;2022-09-25T04:47:19;5.03;;;2.55;;
47489;SDS011;33226;56.996;14.584;2022-09-25T04:49:46;5.47;;;2.50;;
47489;SDS011;33226;56.996;14.584;2022-09-25T04:52:13;2.67;;;2.47;;
47489;SDS011;33226;56.996;14.584;2022-09-25T04:54:40;2.97;;;2.50;;
47489;SDS011;33226;56.996;14.584;2022-09-25T04:57:07;4.93;;;2.63;;
47489;SDS011;33226;56.996;14.584;2022-09-25T04:59:44;4.20;;;2.55;;
47489;SDS011;33226;56.996;14.584;2022-09-25T05:02:10;3.08;;;2.65;;
47489;SDS011;33226;56.996;14.584;2022-09-25T05:04:36;2.90;;;2.60;;
47489;SDS011;33226;56.996;14.584;2022-09-25T05:07:02;4.20;;;2.50;;
47489;SDS011;33226;56.996;14.584;2022-09-25T05:09:28;4.50;;;2.67;;
47489;SDS011;33226;56.996;14.584;2022-09-25T05:11:54;7.38;;;2.78;;
47489;SDS011;33226;56.996;14.584;2022-09-25T05:14:20;4.40;;;2.50;;
47489;SDS011;33226;56.996;14.584;2022-09-25T05:16:46;5.97;;;2.72;;
47489;SDS011;33226;56.996;14.584;2022-09-25T05:19:12;3.75;;;2.50;;
47489;SDS011;33226;56.996;14.584;2022-09-25T05:21:38;3.70;;;2.42;;
47489;SDS011;33226;56.996;14.584;2022-09-25T05:24:04;4.07;;;2.65;;
47489;SDS011;33226;56.996;14.584;2022-09-25T05:26:32;3.42;;;2.60;;
47489;SDS011;33226;56.996;14.584;2022-09-25T05:28:59;3.00;;;2.80;;
47489;SDS011;33226;56.996;14.584;2022-09-25T05:31:25;3.35;;;3.05;;
47489;SDS011;33226;56.996;14.584;2022-09-25T05:33:51;2.88;;;2.60;;
47489;SDS011;33226;56.996;14.584;2022-09-25T05:36:18;2.53;;;2.33;;
47489;SDS011;33226;56.996;14.584;2022-09-25T05:38:44;3.45;;;2.92;;
47489;SDS011;33226;56.996;14.584;2022-09-25T05:41:10;3.20;;;2.65;;
47489;SDS011;33226;56.996;14.584;2022-09-25T05:43:40;3.03;;;2.80;;
47489;SDS011;33226;56.996;14.584;2022-09-25T05:46:08;4.88;;;2.72;;
47489;SDS011;33226;56.996;14.584;2022-09-25T05:48:34;3.67;;;2.90;;
47489;SDS011;33226;56.996;14.584;2022-09-25T05:51:00;4.05;;;3.03;;
47489;SDS011;33226;56.996;14.584;2022-09-25T05:53:26;6.45;;;2.90;;
47489;SDS011;33226;56.996;14.584;2022-09-25T05:55:53;6.18;;;2.80;;
47489;SDS011;33226;56.996;14.584;2022-09-25T05:58:22;3.08;;;2.80;;
47489;SDS011;33226;56.996;14.584;2022-09-25T06:00:48;2.90;;;2.70;;
47489;SDS011;33226;56.996;14.584;2022-09-25T06:03:15;2.90;;;2.70;;
47489;SDS011;33226;56.996;14.584;2022-09-25T06:05:41;2.75;;;2.55;;
47489;SDS011;33226;56.996;14.584;2022-09-25T06:08:08;3.30;;;3.00;;
47489;SDS011;33226;56.996;14.584;2022-09-25T06:10:34;2.75;;;2.47;;
47489;SDS011;33226;56.996;14.584;2022-09-25T06:13:01;3.45;;;2.70;;
47489;SDS011;33226;56.996;14.584;2022-09-25T06:15:31;3.75;;;2.25;;
47489;SDS011;33226;56.996;14.584;2022-09-25T06:18:00;4.28;;;2.40;;
47489;SDS011;33226;56.996;14.584;2022-09-25T06:20:25;2.83;;;2.40;;
47489;SDS011;33226;56.996;14.584;2022-09-25T06:22:54;3.13;;;2.63;;
47489;SDS011;33226;56.996;14.584;2022-09-25T06:25:22;2.70;;;2.50;;
47489;SDS011;33226;56.996;14.584;2022-09-25T06:27:56;7.03;;;2.60;;
47489;SDS011;33226;56.996;14.584;2022-09-25T06:30:24;4.83;;;3.23;;
47489;SDS011;33226;56.996;14.584;2022-09-25T06:32:58;4.50;;;3.03;;
47489;SDS011;33226;56.996;14.584;2022-09-25T06:35:27;3.67;;;2.85;;
47489;SDS011;33226;56.996;14.584;2022-09-25T06:37:57;3.58;;;3.13;;
47489;SDS011;33226;56.996;14.584;2022-09-25T06:40:26;2.90;;;2.60;;
47489;SDS011;33226;56.996;14.584;2022-09-25T06:43:01;8.48;;;2.90;;
47489;SDS011;33226;56.996;14.584;2022-09-25T06:45:29;3.40;;;3.10;;
47489;SDS011;33226;56.996;14.584;2022-09-25T06:50:41;2.35;;;2.15;;
47489;SDS011;33226;56.996;14.584;2022-09-25T06:53:13;2.70;;;2.40;;
47489;SDS011;33226;56.996;14.584;2022-09-25T06:55:39;3.95;;;2.58;;
47489;SDS011;33226;56.996;14.584;2022-09-25T06:58:06;3.33;;;2.60;;
47489;SDS011;33226;56.996;14.584;2022-09-25T07:00:33;4.28;;;2.67;;
47489;SDS011;33226;56.996;14.584;2022-09-25T07:02:59;7.05;;;2.53;;
47489;SDS011;33226;56.996;14.584;2022-09-25T07:05:43;4.07;;;3.00;;
47489;SDS011;33226;56.996;14.584;2022-09-25T07:08:11;4.45;;;3.20;;
47489;SDS011;33226;56.996;14.584;2022-09-25T07:10:45;4.00;;;2.90;;
47489;SDS011;33226;56.996;14.584;2022-09-25T07:15:52;7.20;;;4.70;;
47489;SDS011;33226;56.996;14.584;2022-09-25T07:18:19;9.10;;;5.40;;
47489;SDS011;33226;56.996;14.584;2022-09-25T07:20:45;111.28;;;32.65;;
47489;SDS011;33226;56.996;14.584;2022-09-25T07:23:12;162.88;;;43.63;;
47489;SDS011;33226;56.996;14.584;2022-09-25T07:25:39;62.13;;;20.55;;
47489;SDS011;33226;56.996;14.584;2022-09-25T07:28:05;46.28;;;18.13;;
47489;SDS011;33226;56.996;14.584;2022-09-25T07:30:31;20.40;;;9.07;;
47489;SDS011;33226;56.996;14.584;2022-09-25T07:32:57;40.88;;;31.38;;
47489;SDS011;33226;56.996;14.584;2022-09-25T07:35:23;64.30;;;26.92;;
47489;SDS011;33226;56.996;14.584;2022-09-25T07:37:51;29.48;;;14.95;;
47489;SDS011;33226;56.996;14.584;2022-09-25T07:40:19;12.05;;;7.65;;
47489;SDS011;33226;56.996;14.584;2022-09-25T07:42:45;7.53;;;5.68;;
47489;SDS011;33226;56.996;14.584;2022-09-25T07:45:10;7.47;;;5.22;;
47489;SDS011;33226;56.996;14.584;2022-09-25T07:47:36;5.82;;;4.22;;
47489;SDS011;33226;56.996;14.584;2022-09-25T07:50:02;4.68;;;4.28;;
47489;SDS011;33226;56.996;14.584;2022-09-25T07:52:28;4.13;;;3.83;;
47489;SDS011;33226;56.996;14.584;2022-09-25T07:54:53;4.65;;;4.07;;
47489;SDS011;33226;56.996;14.584;2022-09-25T07:57:19;6.93;;;4.10;;
47489;SDS011;33226;56.996;14.584;2022-09-25T07:59:47;4.95;;;3.88;;
47489;SDS011;33226;56.996;14.584;2022-09-25T08:02:13;4.30;;;3.90;;
47489;SDS011;33226;56.996;14.584;2022-09-25T08:04:39;3.97;;;3.67;;
47489;SDS011;33226;56.996;14.584;2022-09-25T08:07:04;4.32;;;3.58;;
47489;SDS011;33226;56.996;14.584;2022-09-25T08:09:30;4.07;;;3.67;;
47489;SDS011;33226;56.996;14.584;2022-09-25T08:11:55;5.20;;;3.65;;
47489;SDS011;33226;56.996;14.584;2022-09-25T08:14:21;4.13;;;3.50;;
47489;SDS011;33226;56.996;14.584;2022-09-25T08:16:47;4.63;;;3.80;;
47489;SDS011;33226;56.996;14.584;2022-09-25T08:19:14;3.75;;;3.38;;
47489;SDS011;33226;56.996;14.584;2022-09-25T08:21:42;3.58;;;3.28;;
47489;SDS011;33226;56.996;14.584;2022-09-25T08:24:08;3.45;;;3.20;;
47489;SDS011;33226;56.996;14.584;2022-09-25T08:26:35;4.05;;;3.40;;
47489;SDS011;33226;56.996;14.584;2022-09-25T08:29:01;6.45;;;3.55;;
47489;SDS011;33226;56.996;14.584;2022-09-25T08:31:27;4.53;;;2.90;;
47489;SDS011;33226;56.996;14.584;2022-09-25T08:33:53;3.70;;;3.20;;
47489;SDS011;33226;56.996;14.584;2022-09-25T08:36:18;4.75;;;3.47;;
47489;SDS011;33226;56.996;14.584;2022-09-25T08:38:45;4.72;;;3.05;;
47489;SDS011;33226;56.996;14.584;2022-09-25T08:43:53;4.28;;;2.88;;
47489;SDS011;33226;56.996;14.584;2022-09-25T08:49:31;5.45;;;3.10;;
47489;SDS011;33226;56.996;14.584;2022-09-25T08:52:02;5.45;;;3.10;;
47489;SDS011;33226;56.996;14.584;2022-09-25T08:54:33;7.30;;;3.50;;
47489;SDS011;33226;56.996;14.584;2022-09-25T08:57:19;3.10;;;2.80;;
47489;SDS011;33226;56.996;14.584;2022-09-25T09:00:05;2.80;;;2.60;;
47489;SDS011;33226;56.996;14.584;2022-09-25T09:02:42;5.75;;;2.83;;
47489;SDS011;33226;56.996;14.584;2022-09-25T09:05:18;3.40;;;2.70;;
47489;SDS011;33226;56.996;14.584;2022-09-25T09:08:06;2.75;;;2.47;;
47489;SDS011;33226;56.996;14.584;2022-09-25T09:10:38;3.47;;;2.78;;
47489;SDS011;33226;56.996;14.584;2022-09-25T09:13:21;4.25;;;2.60;;
47489;SDS011;33226;56.996;14.584;2022-09-25T09:15:56;2.60;;;2.40;;
47489;SDS011;33226;56.996;14.584;2022-09-25T09:18:26;2.35;;;2.15;;
47489;SDS011;33226;56.996;14.584;2022-09-25T09:21:35;2.30;;;2.10;;
47489;SDS011;33226;56.996;14.584;2022-09-25T09:24:02;2.95;;;2.65;;
47489;SDS011;33226;56.996;14.584;2022-09-25T09:28:59;4.88;;;2.20;;
47489;SDS011;33226;56.996;14.584;2022-09-25T09:31:49;2.10;;;2.00;;
47489;SDS011;33226;56.996;14.584;2022-09-25T09:45:50;2.10;;;1.90;;
47489;SDS011;33226;56.996;14.584;2022-09-25T09:51:24;2.17;;;1.90;;
47489;SDS011;33226;56.996;14.584;2022-09-25T09:53:59;2.83;;;1.90;;
47489;SDS011;33226;56.996;14.584;2022-09-25T09:56:34;2.50;;;1.95;;
47489;SDS011;33226;56.996;14.584;2022-09-25T09:59:23;2.03;;;1.77;;
47489;SDS011;33226;56.996;14.584;2022-09-25T10:01:53;6.40;;;1.92;;
47489;SDS011;33226;56.996;14.584;2022-09-25T10:04:39;1.95;;;1.40;;
47489;SDS011;33226;56.996;14.584;2022-09-25T10:07:08;4.82;;;1.70;;
47489;SDS011;33226;56.996;14.584;2022-09-25T10:09:37;2.53;;;1.70;;
47489;SDS011;33226;56.996;14.584;2022-09-25T10:12:09;3.17;;;1.65;;
47489;SDS011;33226;56.996;14.584;2022-09-25T10:14:38;2.83;;;1.52;;
47489;SDS011;33226;56.996;14.584;2022-09-25T10:17:07;2.45;;;1.50;;
47489;SDS011;33226;56.996;14.584;2022-09-25T10:19:43;2.97;;;1.60;;
47489;SDS011;33226;56.996;14.584;2022-09-25T10:22:26;2.85;;;1.52;;
47489;SDS011;33226;56.996;14.584;2022-09-25T10:24:57;1.70;;;1.60;;
47489;SDS011;33226;56.996;14.584;2022-09-25T10:27:28;2.03;;;1.83;;
47489;SDS011;33226;56.996;14.584;2022-09-25T10:32:45;3.15;;;1.90;;
47489;SDS011;33226;56.996;14.584;2022-09-25T10:35:14;3.25;;;1.92;;
47489;SDS011;33226;56.996;14.584;2022-09-25T10:37:42;6.22;;;1.85;;
47489;SDS011;33226;56.996;14.584;2022-09-25T10:40:22;2.00;;;1.70;;
47489;SDS011;33226;56.996;14.584;2022-09-25T10:43:00;5.65;;;2.05;;
47489;SDS011;33226;56.996;14.584;2022-09-25T10:47:53;2.33;;;1.60;;
47489;SDS011;33226;56.996;14.584;2022-09-25T10:50:37;2.22;;;1.70;;
47489;SDS011;33226;56.996;14.584;2022-09-25T10:53:03;1.85;;;1.38;;
47489;SDS011;33226;56.996;14.584;2022-09-25T10:55:31;2.25;;;1.30;;
47489;SDS011;33226;56.996;14.584;2022-09-25T11:03:23;2.30;;;1.95;;
47489;SDS011;33226;56.996;14.584;2022-09-25T11:05:52;2.97;;;1.83;;
47489;SDS011;33226;56.996;14.584;2022-09-25T11:08:20;2.58;;;1.40;;
47489;SDS011;33226;56.996;14.584;2022-09-25T11:10:52;3.17;;;1.60;;
47489;SDS011;33226;56.996;14.584;2022-09-25T11:13:29;4.40;;;1.60;;
47489;SDS011;33226;56.996;14.584;2022-09-25T11:16:00;2.60;;;1.52;;
47489;SDS011;33226;56.996;14.584;2022-09-25T11:18:50;1.70;;;1.60;;
47489;SDS011;33226;56.996;14.584;2022-09-25T11:21:32;1.90;;;1.40;;
47489;SDS011;33226;56.996;14.584;2022-09-25T11:27:11;4.10;;;1.83;;
47489;SDS011;33226;56.996;14.584;2022-09-25T11:29:45;2.97;;;1.67;;
47489;SDS011;33226;56.996;14.584;2022-09-25T11:32:31;1.52;;;1.42;;
47489;SDS011;33226;56.996;14.584;2022-09-25T11:35:21;3.72;;;1.70;;
47489;SDS011;33226;56.996;14.584;2022-09-25T11:49:02;1.73;;;1.63;;
47489;SDS011;33226;56.996;14.584;2022-09-25T12:16:32;4.45;;;2.08;;
47489;SDS011;33226;56.996;14.584;2022-09-25T12:19:21;2.22;;;1.80;;
47489;SDS011;33226;56.996;14.584;2022-09-25T12:22:06;4.45;;;2.47;;
47489;SDS011;33226;56.996;14.584;2022-09-25T12:25:02;3.25;;;2.10;;
47489;SDS011;33226;56.996;14.584;2022-09-25T12:30:14;2.15;;;1.95;;
47489;SDS011;33226;56.996;14.584;2022-09-25T12:37:58;3.58;;;2.55;;
47489;SDS011;33226;56.996;14.584;2022-09-25T12:40:49;2.38;;;2.17;;
47489;SDS011;33226;56.996;14.584;2022-09-25T12:43:35;4.22;;;2.53;;
47489;SDS011;33226;56.996;14.584;2022-09-25T12:46:12;3.15;;;2.30;;
47489;SDS011;33226;56.996;14.584;2022-09-25T12:48:44;6.13;;;3.25;;
47489;SDS011;33226;56.996;14.584;2022-09-25T12:51:18;3.72;;;3.33;;
47489;SDS011;33226;56.996;14.584;2022-09-25T12:53:52;5.17;;;4.63;;
47489;SDS011;33226;56.996;14.584;2022-09-25T12:56:23;3.35;;;2.95;;
47489;SDS011;33226;56.996;14.584;2022-09-25T12:59:26;6.30;;;2.55;;
47489;SDS011;33226;56.996;14.584;2022-09-25T13:04:40;4.53;;;2.38;;
47489;SDS011;33226;56.996;14.584;2022-09-25T13:07:35;3.92;;;2.05;;
47489;SDS011;33226;56.996;14.584;2022-09-25T13:12:46;2.53;;;2.20;;
47489;SDS011;33226;56.996;14.584;2022-09-25T13:15:14;2.85;;;2.40;;
47489;SDS011;33226;56.996;14.584;2022-09-25T13:17:43;2.33;;;2.10;;
47489;SDS011;33226;56.996;14.584;2022-09-25T13:20:55;2.83;;;2.20;;
47489;SDS011;33226;56.996;14.584;2022-09-25T13:28:05;2.03;;;1.83;;
47489;SDS011;33226;56.996;14.584;2022-09-25T13:30:33;3.30;;;1.80;;
47489;SDS011;33226;56.996;14.584;2022-09-25T13:33:00;2.35;;;1.77;;
47489;SDS011;33226;56.996;14.584;2022-09-25T13:35:27;2.40;;;1.88;;
47489;SDS011;33226;56.996;14.584;2022-09-25T13:38:16;1.90;;;1.80;;
47489;SDS011;33226;56.996;14.584;2022-09-25T13:41:10;2.47;;;1.80;;
47489;SDS011;33226;56.996;14.584;2022-09-25T13:43:37;2.55;;;1.75;;
47489;SDS011;33226;56.996;14.584;2022-09-25T13:48:41;3.35;;;1.90;;
47489;SDS011;33226;56.996;14.584;2022-09-25T13:53:55;2.60;;;1.83;;
47489;SDS011;33226;56.996;14.584;2022-09-25T13:56:43;2.17;;;1.92;;
47489;SDS011;33226;56.996;14.584;2022-09-25T14:01:44;2.35;;;1.85;;
47489;SDS011;33226;56.996;14.584;2022-09-25T14:06:37;3.70;;;1.92;;
47489;SDS011;33226;56.996;14.584;2022-09-25T14:09:09;2.45;;;1.95;;
47489;SDS011;33226;56.996;14.584;2022-09-25T14:11:37;2.20;;;1.80;;
47489;SDS011;33226;56.996;14.584;2022-09-25T14:14:07;3.47;;;2.08;;
47489;SDS011;33226;56.996;14.584;2022-09-25T14:16:44;1.90;;;1.80;;
47489;SDS011;33226;56.996;14.584;2022-09-25T14:19:16;2.55;;;1.67;;
47489;SDS011;33226;56.996;14.584;2022-09-25T14:21:54;3.75;;;1.90;;
47489;SDS011;33226;56.996;14.584;2022-09-25T14:24:25;1.77;;;1.67;;
47489;SDS011;33226;56.996;14.584;2022-09-25T14:26:57;1.92;;;1.80;;
47489;SDS011;33226;56.996;14.584;2022-09-25T14:29:25;1.80;;;1.70;;
47489;SDS011;33226;56.996;14.584;2022-09-25T14:37:58;2.33;;;1.83;;
47489;SDS011;33226;56.996;14.584;2022-09-25T14:40:34;2.72;;;1.90;;
47489;SDS011;33226;56.996;14.584;2022-09-25T14:45:55;9.50;;;8.63;;
47489;SDS011;33226;56.996;14.584;2022-09-25T14:48:30;1.92;;;1.83;;
47489;SDS011;33226;56.996;14.584;2022-09-25T14:51:04;2.97;;;1.75;;
47489;SDS011;33226;56.996;14.584;2022-09-25T14:53:36;2.40;;;2.20;;
47489;SDS011;33226;56.996;14.584;2022-09-25T14:56:04;5.35;;;2.60;;
47489;SDS011;33226;56.996;14.584;2022-09-25T14:58:35;2.00;;;1.90;;
47489;SDS011;33226;56.996;14.584;2022-09-25T15:01:12;3.28;;;1.73;;
47489;SDS011;33226;56.996;14.584;2022-09-25T15:03:49;2.60;;;2.15;;
47489;SDS011;33226;56.996;14.584;2022-09-25T15:06:23;2.22;;;2.03;;
47489;SDS011;33226;56.996;14.584;2022-09-25T15:08:53;2.85;;;2.50;;
47489;SDS011;33226;56.996;14.584;2022-09-25T15:11:20;4.95;;;2.05;;
47489;SDS011;33226;56.996;14.584;2022-09-25T15:13:46;2.50;;;2.30;;
47489;SDS011;33226;56.996;14.584;2022-09-25T15:16:13;3.50;;;2.10;;
47489;SDS011;33226;56.996;14.584;2022-09-25T15:18:58;3.35;;;2.38;;
47489;SDS011;33226;56.996;14.584;2022-09-25T15:21:26;2.78;;;2.50;;
47489;SDS011;33226;56.996;14.584;2022-09-25T15:23:55;2.95;;;2.72;;
47489;SDS011;33226;56.996;14.584;2022-09-25T15:26:25;3.47;;;3.00;;
47489;SDS011;33226;56.996;14.584;2022-09-25T15:28:53;3.15;;;2.85;;
47489;SDS011;33226;56.996;14.584;2022-09-25T15:31:19;3.80;;;2.90;;
47489;SDS011;33226;56.996;14.584;2022-09-25T15:33:46;4.80;;;2.90;;
47489;SDS011;33226;56.996;14.584;2022-09-25T15:36:26;4.28;;;2.72;;
47489;SDS011;33226;56.996;14.584;2022-09-25T15:38:52;4.55;;;2.72;;
47489;SDS011;33226;56.996;14.584;2022-09-25T15:41:20;6.05;;;2.85;;
47489;SDS011;33226;56.996;14.584;2022-09-25T15:43:47;3.05;;;2.67;;
47489;SDS011;33226;56.996;14.584;2022-09-25T15:48:56;2.95;;;2.40;;
47489;SDS011;33226;56.996;14.584;2022-09-25T15:51:24;3.80;;;2.50;;
47489;SDS011;33226;56.996;14.584;2022-09-25T15:53:56;3.33;;;3.03;;
47489;SDS011;33226;56.996;14.584;2022-09-25T15:56:34;2.90;;;2.60;;
47489;SDS011;33226;56.996;14.584;2022-09-25T15:59:18;2.85;;;2.65;;
47489;SDS011;33226;56.996;14.584;2022-09-25T16:05:08;2.95;;;2.60;;
47489;SDS011;33226;56.996;14.584;2022-09-25T16:07:36;9.18;;;7.18;;
47489;SDS011;33226;56.996;14.584;2022-09-25T16:20:40;3.30;;;2.92;;
47489;SDS011;33226;56.996;14.584;2022-09-25T16:23:19;3.83;;;3.15;;
47489;SDS011;33226;56.996;14.584;2022-09-25T16:25:55;3.97;;;3.58;;
47489;SDS011;33226;56.996;14.584;2022-09-25T16:28:25;6.10;;;5.50;;
47489;SDS011;33226;56.996;14.584;2022-09-25T16:30:58;4.85;;;4.45;;
47489;SDS011;33226;56.996;14.584;2022-09-25T16:35:58;3.25;;;3.05;;
47489;SDS011;33226;56.996;14.584;2022-09-25T16:38:29;4.18;;;3.80;;
47489;SDS011;33226;56.996;14.584;2022-09-25T16:43:29;4.38;;;4.05;;
47489;SDS011;33226;56.996;14.584;2022-09-25T16:45:56;4.68;;;4.20;;
47489;SDS011;33226;56.996;14.584;2022-09-25T16:48:29;3.90;;;3.60;;
47489;SDS011;33226;56.996;14.584;2022-09-25T16:51:00;5.03;;;4.20;;
47489;SDS011;33226;56.996;14.584;2022-09-25T16:53:26;4.75;;;4.35;;
47489;SDS011;33226;56.996;14.584;2022-09-25T16:55:53;11.88;;;7.22;;
47489;SDS011;33226;56.996;14.584;2022-09-25T16:58:19;14.60;;;9.32;;
47489;SDS011;33226;56.996;14.584;2022-09-25T17:00:46;11.57;;;4.30;;
47489;SDS011;33226;56.996;14.584;2022-09-25T17:03:12;4.20;;;3.80;;
47489;SDS011;33226;56.996;14.584;2022-09-25T17:05:38;3.42;;;3.13;;
47489;SDS011;33226;56.996;14.584;2022-09-25T17:08:14;6.80;;;6.03;;
47489;SDS011;33226;56.996;14.584;2022-09-25T17:10:44;4.68;;;4.25;;
47489;SDS011;33226;56.996;14.584;2022-09-25T17:13:15;10.25;;;4.47;;
47489;SDS011;33226;56.996;14.584;2022-09-25T17:15:44;7.70;;;6.95;;
47489;SDS011;33226;56.996;14.584;2022-09-25T17:18:18;5.85;;;4.82;;
47489;SDS011;33226;56.996;14.584;2022-09-25T17:20:45;8.95;;;5.88;;
47489;SDS011;33226;56.996;14.584;2022-09-25T17:23:14;15.07;;;6.57;;
47489;SDS011;33226;56.996;14.584;2022-09-25T17:28:11;8.75;;;6.32;;
47489;SDS011;33226;56.996;14.584;2022-09-25T17:30:38;6.25;;;5.65;;
47489;SDS011;33226;56.996;14.584;2022-09-25T17:33:04;7.55;;;5.22;;
47489;SDS011;33226;56.996;14.584;2022-09-25T17:35:40;7.95;;;6.00;;
47489;SDS011;33226;56.996;14.584;2022-09-25T17:38:10;5.90;;;5.30;;
47489;SDS011;33226;56.996;14.584;2022-09-25T17:40:37;5.88;;;5.25;;
47489;SDS011;33226;56.996;14.584;2022-09-25T17:43:05;8.30;;;5.30;;
47489;SDS011;33226;56.996;14.584;2022-09-25T17:45:34;7.50;;;5.28;;
47489;SDS011;33226;56.996;14.584;2022-09-25T17:48:09;6.75;;;5.60;;